Time;durP1;ratioP1;P1;durP2;ratioP2;P2;SDS_P1;SDS_P2;PMS_P1;PMS_P2;Temp;Humidity;BMP_temperature;BMP_pressure;BME280_temperature;BME280_humidity;BME280_pressure;Samples;Min_cycle;Max_cycle;Signal;HPM_P1;HPM_P2
2023/04/27 00:00:26;;;;;;;;;;;3.90;99.90;;;;;;8288231;28;19916;-76
2023/04/27 00:04:27;;;;;;;;;;;3.70;99.90;;;;;;8289825;28;19918;-77
2023/04/27 00:08:27;;;;;;;;;;;3.50;99.90;;;;;;8288687;28;20326;-77
2023/04/27 00:12:27;;;;;;;;;;;3.40;99.90;;;;;;8288812;28;20000;-77
2023/04/27 00:16:28;;;;;;;;;;;3.20;99.90;;;;;;8290366;28;19929;-77
2023/04/27 00:20:28;;;;;;;;;;;3.10;99.90;;;;;;8290154;28;20290;-77
2023/04/27 00:24:29;;;;;;;;;;;3.10;99.90;;;;;;8290433;28;19921;-77
2023/04/27 00:28:29;;;;;;;;;;;3.40;99.90;;;;;;8290731;28;19914;-77
2023/04/27 00:32:30;;;;;;;;;;;3.40;99.90;;;;;;8294961;28;20409;-76
2023/04/27 00:36:32;;;;;;;;;;;3.50;99.90;;;;;;8279463;28;19909;-76
2023/04/27 00:40:32;;;;;;;;;;;3.60;99.90;;;;;;8279110;28;19913;-76
2023/04/27 00:44:33;;;;;;;;;;;3.60;99.90;;;;;;8296344;28;20012;-76
2023/04/27 00:48:34;;;;;;;;;;;3.90;99.90;;;;;;8295501;28;20202;-77
2023/04/27 00:52:37;;;;;;;;;;;4.00;99.90;;;;;;8278404;28;19917;-77
2023/04/27 00:56:38;;;;;;;;;;;3.90;99.90;;;;;;8294538;28;19918;-76
2023/04/27 01:00:39;;;;;;;;;;;3.80;99.90;;;;;;8278344;28;20422;-76
2023/04/27 01:04:39;;;;;;;;;;;4.10;99.90;;;;;;8295317;28;20374;-76
2023/04/27 01:08:40;;;;;;;;;;;4.00;99.90;;;;;;8298794;28;19948;-77
2023/04/27 01:12:40;;;;;;;;;;;3.70;99.90;;;;;;8293926;28;19920;-77
2023/04/27 01:16:41;;;;;;;;;;;3.60;99.90;;;;;;8297272;28;19914;-76
2023/04/27 01:20:42;;;;;;;;;;;3.60;99.90;;;;;;8279742;28;19913;-77
2023/04/27 01:24:42;;;;;;;;;;;3.60;99.90;;;;;;8295220;28;19957;-77
2023/04/27 01:28:43;;;;;;;;;;;3.60;99.90;;;;;;8301519;28;19970;-77
2023/04/27 01:32:43;;;;;;;;;;;3.30;99.90;;;;;;8296146;28;19975;-78
2023/04/27 01:36:44;;;;;;;;;;;3.30;99.90;;;;;;8293689;28;19917;-77
2023/04/27 01:40:44;;;;;;;;;;;3.20;99.90;;;;;;8293324;28;20408;-77
2023/04/27 01:44:44;;;;;;;;;;;3.10;99.90;;;;;;8281331;28;19921;-76
2023/04/27 01:48:45;;;;;;;;;;;3.10;99.90;;;;;;8275844;28;19920;-77
2023/04/27 01:52:46;;;;;;;;;;;3.40;99.90;;;;;;8278876;28;19914;-77
2023/04/27 01:56:46;;;;;;;;;;;3.30;99.90;;;;;;8275964;28;19924;-76
2023/04/27 02:00:47;;;;;;;;;;;3.00;99.90;;;;;;8293824;28;20305;-76
2023/04/27 02:04:47;;;;;;;;;;;2.90;99.90;;;;;;8292700;28;19940;-76
2023/04/27 02:08:48;;;;;;;;;;;2.90;99.90;;;;;;8294367;28;19910;-77
2023/04/27 02:12:48;;;;;;;;;;;2.70;99.90;;;;;;8291940;28;19936;-76
2023/04/27 02:16:49;;;;;;;;;;;2.50;99.90;;;;;;8292074;28;19921;-77
2023/04/27 02:20:49;;;;;;;;;;;2.30;99.90;;;;;;8292846;28;19988;-76
2023/04/27 02:24:50;;;;;;;;;;;2.10;99.90;;;;;;8292840;28;20028;-77
2023/04/27 02:28:50;;;;;;;;;;;2.20;99.90;;;;;;8292467;28;20290;-77
2023/04/27 02:32:51;;;;;;;;;;;2.20;99.90;;;;;;8291618;28;20677;-76
2023/04/27 02:36:52;;;;;;;;;;;2.20;99.90;;;;;;8291722;28;20575;-76
2023/04/27 02:40:53;;;;;;;;;;;2.20;99.90;;;;;;8297197;28;19970;-77
2023/04/27 02:44:54;;;;;;;;;;;2.20;99.90;;;;;;8294550;28;19918;-77
2023/04/27 02:48:55;;;;;;;;;;;2.20;99.90;;;;;;8292542;28;19917;-76
2023/04/27 02:52:56;;;;;;;;;;;2.90;99.90;;;;;;8293773;28;19913;-77
2023/04/27 02:56:56;;;;;;;;;;;2.70;99.90;;;;;;8294295;28;20329;-77
2023/04/27 03:00:57;;;;;;;;;;;2.90;99.90;;;;;;8280579;28;20012;-77
2023/04/27 03:04:58;;;;;;;;;;;2.90;99.90;;;;;;8293615;28;19925;-75
2023/04/27 03:08:58;;;;;;;;;;;3.10;99.90;;;;;;8293509;28;19922;-77
2023/04/27 03:12:59;;;;;;;;;;;3.30;99.90;;;;;;8298793;28;20016;-76
2023/04/27 03:16:59;;;;;;;;;;;3.40;99.90;;;;;;8290964;28;19956;-76
2023/04/27 03:21:09;;;;;;;;;;;3.30;99.90;;;;;;8293522;28;19913;-77
2023/04/27 03:25:10;;;;;;;;;;;2.90;99.90;;;;;;8276830;28;19978;-76
2023/04/27 03:29:10;;;;;;;;;;;2.70;99.90;;;;;;8299884;28;19913;-76
2023/04/27 03:33:11;;;;;;;;;;;2.80;99.90;;;;;;8278024;28;20534;-76
2023/04/27 03:37:11;;;;;;;;;;;2.90;99.90;;;;;;8290968;28;20306;-77
2023/04/27 03:41:12;;;;;;;;;;;2.90;99.90;;;;;;8274535;28;19925;-76
2023/04/27 03:45:12;;;;;;;;;;;3.30;99.90;;;;;;8276050;28;19924;-77
2023/04/27 03:49:13;;;;;;;;;;;3.80;99.90;;;;;;8289896;28;19920;-76
2023/04/27 03:53:13;;;;;;;;;;;4.00;99.90;;;;;;8270599;28;19949;-76
2023/04/27 03:57:14;;;;;;;;;;;3.80;99.90;;;;;;8293113;28;20592;-77
2023/04/27 04:01:15;;;;;;;;;;;3.70;99.90;;;;;;8290025;28;19939;-77
2023/04/27 04:05:16;;;;;;;;;;;4.00;99.90;;;;;;8290271;28;19925;-76
2023/04/27 04:09:16;;;;;;;;;;;4.20;99.90;;;;;;8278695;28;19976;-76
2023/04/27 04:13:17;;;;;;;;;;;4.60;99.90;;;;;;8280645;28;19968;-77
2023/04/27 04:17:17;;;;;;;;;;;4.40;99.90;;;;;;8288057;28;19980;-76
2023/04/27 04:21:18;;;;;;;;;;;4.60;99.90;;;;;;8295428;28;20002;-76
2023/04/27 04:25:19;;;;;;;;;;;4.70;99.90;;;;;;8285087;28;19932;-76
2023/04/27 04:29:20;;;;;;;;;;;4.40;99.90;;;;;;8290663;28;19924;-76
2023/04/27 04:33:23;;;;;;;;;;;4.20;99.90;;;;;;8303577;28;19924;-85
2023/04/27 04:37:23;;;;;;;;;;;4.10;99.90;;;;;;8309364;28;19992;-84
2023/04/27 04:41:24;;;;;;;;;;;4.60;99.90;;;;;;8321294;28;19913;-84
2023/04/27 04:45:24;;;;;;;;;;;5.00;99.90;;;;;;8322764;28;19929;-84
2023/04/27 04:49:25;;;;;;;;;;;5.10;99.90;;;;;;8320636;28;19988;-84
2023/04/27 04:53:25;;;;;;;;;;;4.90;99.90;;;;;;8308768;28;19909;-84
2023/04/27 04:57:26;;;;;;;;;;;5.00;99.90;;;;;;8310193;28;20412;-84
2023/04/27 05:01:26;;;;;;;;;;;4.90;99.90;;;;;;8304271;28;19920;-84
2023/04/27 05:05:27;;;;;;;;;;;5.20;99.90;;;;;;8322866;28;19922;-84
2023/04/27 05:09:27;;;;;;;;;;;5.50;99.90;;;;;;8273095;28;19918;-76
2023/04/27 05:13:28;;;;;;;;;;;5.30;99.90;;;;;;8245495;28;19922;-76
2023/04/27 05:17:28;;;;;;;;;;;5.10;99.90;;;;;;8288918;28;19917;-76
2023/04/27 05:21:29;;;;;;;;;;;5.00;99.90;;;;;;8291149;28;19909;-76
2023/04/27 05:25:30;;;;;;;;;;;5.50;99.90;;;;;;8292589;28;19921;-76
2023/04/27 05:29:30;;;;;;;;;;;5.90;99.90;;;;;;8294360;28;19913;-77
2023/04/27 05:33:31;;;;;;;;;;;6.00;99.90;;;;;;8294398;28;19910;-78
2023/04/27 05:37:31;;;;;;;;;;;6.20;99.90;;;;;;8294387;28;20012;-76
2023/04/27 05:41:32;;;;;;;;;;;6.90;99.90;;;;;;8294641;28;19910;-76
2023/04/27 05:45:32;;;;;;;;;;;7.30;99.90;;;;;;8294436;28;19917;-77
2023/04/27 05:49:33;;;;;;;;;;;7.20;99.90;;;;;;8293275;28;19949;-77
2023/04/27 05:53:33;;;;;;;;;;;7.70;99.90;;;;;;8292113;28;19916;-78
2023/04/27 05:57:34;;;;;;;;;;;7.90;99.90;;;;;;8294553;28;20690;-77
2023/04/27 06:01:34;;;;;;;;;;;8.10;99.90;;;;;;8293897;28;19992;-76
2023/04/27 06:05:35;;;;;;;;;;;8.20;99.90;;;;;;8294508;28;21369;-76
2023/04/27 06:09:36;;;;;;;;;;;8.50;99.90;;;;;;8293774;28;19956;-77
2023/04/27 06:13:36;;;;;;;;;;;8.60;99.90;;;;;;8292817;28;19913;-77
2023/04/27 06:17:37;;;;;;;;;;;8.80;99.90;;;;;;8291863;28;19914;-76
2023/04/27 06:21:37;;;;;;;;;;;9.30;99.90;;;;;;8292855;28;19945;-77
2023/04/27 06:25:39;;;;;;;;;;;9.70;99.90;;;;;;8291905;28;19920;-77
2023/04/27 06:29:39;;;;;;;;;;;10.00;99.90;;;;;;8294175;28;20007;-77
2023/04/27 06:33:40;;;;;;;;;;;10.10;99.90;;;;;;8291523;28;19921;-77
2023/04/27 06:37:40;;;;;;;;;;;10.20;99.90;;;;;;8275731;28;19910;-77
2023/04/27 06:41:41;;;;;;;;;;;10.60;99.90;;;;;;8291561;28;20545;-77
2023/04/27 06:45:41;;;;;;;;;;;11.10;99.90;;;;;;8291056;28;20000;-77
2023/04/27 06:49:42;;;;;;;;;;;11.30;99.90;;;;;;8276619;28;19909;-76
2023/04/27 06:53:42;;;;;;;;;;;11.20;99.90;;;;;;8292279;28;19924;-77
2023/04/27 06:57:43;;;;;;;;;;;11.20;99.90;;;;;;8291295;28;20017;-77
2023/04/27 07:01:43;;;;;;;;;;;11.20;99.90;;;;;;8292272;28;20297;-77
2023/04/27 07:05:44;;;;;;;;;;;11.40;99.90;;;;;;8291849;28;20412;-76
2023/04/27 07:09:44;;;;;;;;;;;11.70;99.90;;;;;;8274956;28;19913;-77
2023/04/27 07:13:44;;;;;;;;;;;12.00;99.90;;;;;;8291287;28;19960;-76
2023/04/27 07:17:45;;;;;;;;;;;11.90;99.90;;;;;;8290311;28;20000;-77
2023/04/27 07:21:45;;;;;;;;;;;12.00;99.90;;;;;;8289261;28;19988;-77
2023/04/27 07:25:46;;;;;;;;;;;12.30;99.90;;;;;;8290132;28;20012;-77
2023/04/27 07:29:47;;;;;;;;;;;12.40;99.90;;;;;;8291799;28;19916;-76
2023/04/27 07:33:47;;;;;;;;;;;12.80;99.90;;;;;;8289877;28;19914;-77
2023/04/27 07:37:50;;;;;;;;;;;13.10;99.90;;;;;;8289684;28;21342;-76
2023/04/27 07:41:51;;;;;;;;;;;12.90;99.90;;;;;;8289617;28;19921;-76
2023/04/27 07:45:53;;;;;;;;;;;12.60;99.90;;;;;;8289679;28;19909;-76
2023/04/27 07:49:54;;;;;;;;;;;12.70;99.90;;;;;;8291357;28;19941;-77
2023/04/27 07:53:55;;;;;;;;;;;13.50;99.90;;;;;;8286499;28;20364;-77
2023/04/27 07:57:55;;;;;;;;;;;14.10;99.90;;;;;;8272077;28;19996;-76
2023/04/27 08:01:56;;;;;;;;;;;14.10;99.90;;;;;;8290158;28;19910;-77
2023/04/27 08:05:56;;;;;;;;;;;14.30;99.90;;;;;;8290478;28;19964;-77
2023/04/27 08:09:57;;;;;;;;;;;14.70;99.90;;;;;;8289541;28;20492;-76
2023/04/27 08:13:57;;;;;;;;;;;14.50;99.90;;;;;;8289093;28;19909;-77
2023/04/27 08:17:58;;;;;;;;;;;14.40;99.90;;;;;;8272488;28;19945;-77
2023/04/27 08:21:58;;;;;;;;;;;15.40;99.90;;;;;;8270937;28;19920;-77
2023/04/27 08:25:58;;;;;;;;;;;15.70;99.90;;;;;;8289955;28;19913;-77
2023/04/27 08:30:00;;;;;;;;;;;15.80;99.90;;;;;;8271913;28;19940;-76
2023/04/27 08:34:01;;;;;;;;;;;16.20;99.90;;;;;;8271472;28;19909;-77
2023/04/27 08:38:01;;;;;;;;;;;16.50;99.90;;;;;;8271694;28;20382;-77
2023/04/27 08:42:09;;;;;;;;;;;17.60;99.90;;;;;;8289596;28;20293;-77
2023/04/27 08:46:10;;;;;;;;;;;18.30;99.90;;;;;;8289293;28;19909;-77
2023/04/27 08:50:11;;;;;;;;;;;19.20;99.90;;;;;;8271721;28;19910;-76
2023/04/27 08:54:11;;;;;;;;;;;18.80;99.90;;;;;;8277763;28;19953;-77
2023/04/27 08:58:12;;;;;;;;;;;18.00;99.90;;;;;;8295810;28;19914;-77
2023/04/27 09:02:19;;;;;;;;;;;17.80;99.90;;;;;;8295553;28;19916;-77
2023/04/27 09:06:28;;;;;;;;;;;18.50;99.90;;;;;;8289258;28;19913;-77
2023/04/27 09:10:28;;;;;;;;;;;18.70;99.90;;;;;;8294450;28;19909;-77
2023/04/27 09:14:34;;;;;;;;;;;18.70;99.90;;;;;;8293927;28;19933;-76
2023/04/27 09:18:35;;;;;;;;;;;18.50;99.90;;;;;;8293135;28;19917;-76
2023/04/27 09:22:46;;;;;;;;;;;18.30;99.90;;;;;;8293513;28;20397;-77
2023/04/27 09:26:48;;;;;;;;;;;18.20;99.90;;;;;;8294884;28;19921;-77
2023/04/27 09:30:53;;;;;;;;;;;18.30;99.90;;;;;;8277839;28;19913;-77
2023/04/27 09:34:54;;;;;;;;;;;18.70;99.90;;;;;;8294321;28;19956;-77
2023/04/27 09:38:54;;;;;;;;;;;18.80;99.90;;;;;;8293246;28;19917;-75
2023/04/27 09:42:56;;;;;;;;;;;18.90;99.90;;;;;;8291060;28;20157;-76
2023/04/27 09:46:58;;;;;;;;;;;18.90;99.90;;;;;;8276337;28;19914;-76
2023/04/27 09:50:59;;;;;;;;;;;18.80;99.90;;;;;;8290042;28;19928;-77
2023/04/27 09:55:01;;;;;;;;;;;18.60;99.90;;;;;;8294162;28;19918;-77
2023/04/27 09:59:25;;;;;;;;;;;18.40;99.90;;;;;;8293226;28;19910;-76
2023/04/27 10:03:38;;;;;;;;;;;18.20;99.90;;;;;;8289735;28;19979;-77
2023/04/27 10:07:42;;;;;;;;;;;18.20;99.90;;;;;;8276786;28;19910;-76
2023/04/27 10:11:43;;;;;;;;;;;18.20;99.90;;;;;;8292415;28;19938;-76
2023/04/27 10:15:43;;;;;;;;;;;19.00;99.90;;;;;;8291546;28;19952;-76
2023/04/27 10:19:54;;;;;;;;;;;20.00;99.90;;;;;;8293514;28;19909;-77
2023/04/27 10:24:05;;;;;;;;;;;20.50;99.90;;;;;;8292019;28;19917;-77
2023/04/27 10:28:07;;;;;;;;;;;20.90;99.90;;;;;;8276888;28;19956;-77
2023/04/27 10:32:11;;;;;;;;;;;21.20;99.50;;;;;;8275918;28;19909;-76
2023/04/27 10:36:15;;;;;;;;;;;21.10;98.50;;;;;;8297665;28;19909;-78
2023/04/27 10:40:18;;;;;;;;;;;20.90;96.20;;;;;;8299716;28;19917;-77
2023/04/27 10:44:23;;;;;;;;;;;21.10;96.70;;;;;;8300837;28;20309;-76
2023/04/27 10:48:24;;;;;;;;;;;20.80;95.90;;;;;;8301161;28;20004;-78
2023/04/27 10:52:25;;;;;;;;;;;20.30;92.50;;;;;;8294976;28;19916;-79
2023/04/27 10:56:25;;;;;;;;;;;20.50;94.90;;;;;;8281618;28;19921;-77
2023/04/27 11:00:36;;;;;;;;;;;20.20;95.90;;;;;;8302916;28;19914;-79
2023/04/27 11:04:40;;;;;;;;;;;19.60;97.40;;;;;;8297909;28;19918;-78
2023/04/27 11:08:44;;;;;;;;;;;19.80;95.70;;;;;;8298291;28;19916;-79
2023/04/27 11:12:45;;;;;;;;;;;19.90;97.80;;;;;;8299231;28;19910;-78
2023/04/27 11:16:46;;;;;;;;;;;19.90;95.70;;;;;;8298820;28;19955;-78
2023/04/27 11:20:51;;;;;;;;;;;19.30;96.60;;;;;;8298532;28;20019;-78
2023/04/27 11:24:52;;;;;;;;;;;18.90;97.80;;;;;;8300769;28;19936;-79
2023/04/27 11:29:04;;;;;;;;;;;19.40;96.10;;;;;;8299615;28;19968;-77
2023/04/27 11:33:06;;;;;;;;;;;20.00;96.10;;;;;;8297232;28;19909;-77
2023/04/27 11:37:08;;;;;;;;;;;21.20;96.00;;;;;;8300767;28;19972;-78
2023/04/27 11:41:08;;;;;;;;;;;21.80;96.20;;;;;;8300769;28;19917;-78
2023/04/27 11:45:10;;;;;;;;;;;22.20;91.00;;;;;;8300550;28;20263;-78
2023/04/27 11:49:11;;;;;;;;;;;20.40;95.90;;;;;;8299854;28;20459;-78
2023/04/27 11:53:11;;;;;;;;;;;18.00;99.50;;;;;;8287399;28;19918;-78
2023/04/27 11:57:12;;;;;;;;;;;17.70;98.50;;;;;;8305873;28;19983;-77
2023/04/27 12:01:12;;;;;;;;;;;18.00;99.30;;;;;;8293575;28;19917;-76
2023/04/27 12:05:14;;;;;;;;;;;17.70;99.90;;;;;;8290936;28;19913;-77
2023/04/27 12:09:16;;;;;;;;;;;18.10;98.50;;;;;;8291837;28;19937;-76
2023/04/27 12:13:16;;;;;;;;;;;18.60;99.00;;;;;;8291332;28;20574;-76
2023/04/27 12:17:17;;;;;;;;;;;18.40;98.90;;;;;;8287896;28;19913;-76
2023/04/27 12:21:17;;;;;;;;;;;17.60;99.90;;;;;;8291662;28;19917;-77
2023/04/27 12:25:18;;;;;;;;;;;17.80;99.90;;;;;;8293100;28;20003;-78
2023/04/27 12:29:19;;;;;;;;;;;18.40;98.50;;;;;;8301956;28;20381;-78
2023/04/27 12:33:20;;;;;;;;;;;19.70;99.00;;;;;;8300193;28;20329;-77
2023/04/27 12:37:21;;;;;;;;;;;21.50;96.50;;;;;;8283041;28;20016;-77
2023/04/27 12:41:22;;;;;;;;;;;22.80;90.40;;;;;;8301285;28;19932;-77
2023/04/27 12:45:22;;;;;;;;;;;24.40;90.90;;;;;;8301798;28;20401;-77
2023/04/27 12:49:22;;;;;;;;;;;24.60;84.30;;;;;;8302183;28;19955;-77
2023/04/27 12:53:23;;;;;;;;;;;25.50;88.80;;;;;;8302058;28;20275;-77
2023/04/27 12:57:23;;;;;;;;;;;26.50;82.00;;;;;;8301502;28;19917;-78
2023/04/27 13:01:26;;;;;;;;;;;26.80;75.60;;;;;;8298677;28;19984;-77
2023/04/27 13:05:27;;;;;;;;;;;27.60;69.60;;;;;;8299678;28;20420;-79
2023/04/27 13:09:27;;;;;;;;;;;25.90;70.70;;;;;;8299661;28;19945;-77
2023/04/27 13:13:28;;;;;;;;;;;24.50;73.90;;;;;;8300291;28;20000;-76
2023/04/27 13:17:28;;;;;;;;;;;24.60;76.20;;;;;;8301265;28;19960;-78
2023/04/27 13:21:29;;;;;;;;;;;22.90;77.90;;;;;;8289177;28;19975;-79
2023/04/27 13:25:29;;;;;;;;;;;21.20;79.30;;;;;;8302048;28;19924;-77
2023/04/27 13:29:30;;;;;;;;;;;20.50;85.90;;;;;;8306572;28;19910;-77
2023/04/27 13:33:31;;;;;;;;;;;19.50;86.70;;;;;;8301654;28;19910;-77
2023/04/27 13:37:31;;;;;;;;;;;19.10;90.00;;;;;;8300811;28;20378;-77
2023/04/27 13:41:32;;;;;;;;;;;18.90;89.60;;;;;;8297089;28;19916;-78
2023/04/27 13:45:33;;;;;;;;;;;18.80;93.50;;;;;;8298912;28;19922;-77
2023/04/27 13:49:33;;;;;;;;;;;18.80;90.20;;;;;;8294809;28;19940;-78
2023/04/27 13:53:34;;;;;;;;;;;18.70;92.80;;;;;;8302171;28;19913;-78
2023/04/27 13:57:34;;;;;;;;;;;19.10;93.40;;;;;;8296538;28;19929;-77
2023/04/27 14:01:36;;;;;;;;;;;19.40;93.80;;;;;;8297565;28;19913;-77
2023/04/27 14:05:36;;;;;;;;;;;19.60;91.30;;;;;;8297308;28;20039;-78
2023/04/27 14:09:37;;;;;;;;;;;20.70;90.80;;;;;;8296603;28;19916;-78
2023/04/27 14:13:37;;;;;;;;;;;23.70;76.60;;;;;;8297412;28;19945;-77
2023/04/27 14:17:37;;;;;;;;;;;25.20;76.50;;;;;;8297826;28;19944;-77
2023/04/27 14:21:38;;;;;;;;;;;24.60;76.90;;;;;;8281054;28;20005;-78
2023/04/27 14:25:38;;;;;;;;;;;22.00;79.90;;;;;;8299269;28;19917;-78
2023/04/27 14:29:39;;;;;;;;;;;19.90;90.20;;;;;;8300171;28;20350;-78
2023/04/27 14:33:39;;;;;;;;;;;21.10;84.70;;;;;;8298740;28;19910;-76
2023/04/27 14:37:40;;;;;;;;;;;22.50;81.00;;;;;;8300247;28;19909;-77
2023/04/27 14:41:40;;;;;;;;;;;21.50;88.60;;;;;;8297482;28;20409;-78
2023/04/27 14:45:41;;;;;;;;;;;21.80;83.50;;;;;;8296521;28;19922;-77
2023/04/27 14:49:41;;;;;;;;;;;22.70;82.40;;;;;;8298620;28;19910;-78
2023/04/27 14:53:42;;;;;;;;;;;21.70;79.30;;;;;;8297305;28;20363;-78
2023/04/27 14:57:43;;;;;;;;;;;22.60;83.60;;;;;;8299831;28;19964;-78
2023/04/27 15:01:43;;;;;;;;;;;24.50;78.40;;;;;;8298383;28;20286;-78
2023/04/27 15:05:44;;;;;;;;;;;25.50;69.90;;;;;;8298336;28;20405;-78
2023/04/27 15:09:45;;;;;;;;;;;24.60;72.10;;;;;;8295791;28;19914;-79
2023/04/27 15:13:45;;;;;;;;;;;22.80;83.00;;;;;;8301746;28;19924;-78
2023/04/27 15:17:46;;;;;;;;;;;21.50;78.80;;;;;;8298430;28;19919;-78
2023/04/27 15:21:47;;;;;;;;;;;20.50;81.40;;;;;;8299738;28;19917;-78
2023/04/27 15:25:48;;;;;;;;;;;20.70;83.20;;;;;;8280972;28;19920;-77
2023/04/27 15:29:48;;;;;;;;;;;23.90;81.30;;;;;;8302358;28;19921;-78
2023/04/27 15:33:49;;;;;;;;;;;24.70;79.50;;;;;;8303359;28;19924;-78
2023/04/27 15:37:50;;;;;;;;;;;23.80;81.70;;;;;;8300756;28;19917;-79
2023/04/27 15:41:50;;;;;;;;;;;21.30;84.80;;;;;;8295226;28;19921;-77
2023/04/27 15:45:52;;;;;;;;;;;21.50;86.00;;;;;;8298806;28;19936;-79
2023/04/27 15:49:52;;;;;;;;;;;21.30;79.70;;;;;;8299511;28;20412;-79
2023/04/27 15:53:53;;;;;;;;;;;20.80;87.30;;;;;;8280531;28;19917;-78
2023/04/27 15:57:53;;;;;;;;;;;20.40;84.20;;;;;;8285660;28;19924;-78
2023/04/27 16:01:54;;;;;;;;;;;19.80;92.40;;;;;;8285376;28;20325;-77
2023/04/27 16:05:54;;;;;;;;;;;18.40;91.30;;;;;;8301777;28;19922;-78
2023/04/27 16:09:55;;;;;;;;;;;18.10;93.30;;;;;;8300906;28;19917;-77
2023/04/27 16:13:55;;;;;;;;;;;18.10;93.20;;;;;;8305998;28;19981;-78
2023/04/27 16:17:56;;;;;;;;;;;18.10;94.70;;;;;;8320301;28;19923;-77
2023/04/27 16:21:56;;;;;;;;;;;18.10;93.80;;;;;;8294736;28;19909;-76
2023/04/27 16:25:57;;;;;;;;;;;18.10;91.70;;;;;;8274139;28;20306;-78
2023/04/27 16:29:57;;;;;;;;;;;18.10;94.00;;;;;;8295416;28;20004;-77
2023/04/27 16:33:58;;;;;;;;;;;18.00;96.10;;;;;;8292389;28;19915;-77
2023/04/27 16:37:58;;;;;;;;;;;18.00;94.90;;;;;;8275982;28;19914;-76
2023/04/27 16:41:58;;;;;;;;;;;17.90;94.20;;;;;;8273128;28;19910;-76
2023/04/27 16:45:59;;;;;;;;;;;18.00;93.80;;;;;;8291948;28;20003;-77
2023/04/27 16:49:59;;;;;;;;;;;17.80;92.80;;;;;;8280498;28;19924;-77
2023/04/27 16:54:01;;;;;;;;;;;17.70;95.30;;;;;;8292988;28;19936;-77
2023/04/27 16:58:01;;;;;;;;;;;17.80;94.10;;;;;;8278776;28;20409;-77
2023/04/27 17:02:02;;;;;;;;;;;17.90;94.80;;;;;;8289649;28;19924;-77
2023/04/27 17:06:02;;;;;;;;;;;17.90;94.60;;;;;;8283926;28;19917;-77
2023/04/27 17:10:04;;;;;;;;;;;17.80;94.00;;;;;;8286216;28;19918;-76
2023/04/27 17:14:04;;;;;;;;;;;17.10;96.80;;;;;;8290591;28;19914;-77
2023/04/27 17:18:05;;;;;;;;;;;16.20;99.60;;;;;;8294767;28;19929;-77
2023/04/27 17:22:09;;;;;;;;;;;15.80;99.90;;;;;;8271072;28;19928;-76
2023/04/27 17:26:10;;;;;;;;;;;15.30;98.80;;;;;;8290725;28;19921;-77
2023/04/27 17:30:11;;;;;;;;;;;15.00;99.90;;;;;;8291070;28;20169;-77
2023/04/27 17:34:12;;;;;;;;;;;15.00;99.90;;;;;;8292531;28;19928;-78
2023/04/27 17:38:12;;;;;;;;;;;14.60;99.90;;;;;;8296544;28;19929;-78
2023/04/27 17:42:13;;;;;;;;;;;14.30;99.90;;;;;;8296923;28;19923;-77
2023/04/27 17:46:13;;;;;;;;;;;14.10;99.90;;;;;;8273719;28;19925;-78
2023/04/27 17:50:14;;;;;;;;;;;13.90;99.90;;;;;;8294019;28;20000;-77
2023/04/27 17:54:14;;;;;;;;;;;13.80;99.90;;;;;;8289994;28;20409;-77
2023/04/27 17:58:15;;;;;;;;;;;13.50;99.90;;;;;;8289441;28;20000;-77
2023/04/27 18:02:16;;;;;;;;;;;13.20;99.90;;;;;;8294585;28;19921;-77
2023/04/27 18:06:19;;;;;;;;;;;13.00;99.90;;;;;;8302302;28;19913;-77
2023/04/27 18:10:20;;;;;;;;;;;13.10;99.90;;;;;;8303446;28;19917;-78
2023/04/27 18:14:20;;;;;;;;;;;13.20;99.90;;;;;;8288187;28;19917;-77
2023/04/27 18:18:21;;;;;;;;;;;12.90;99.90;;;;;;8313930;28;19917;-77
2023/04/27 18:22:21;;;;;;;;;;;12.50;99.90;;;;;;8290380;28;19975;-77
2023/04/27 18:26:22;;;;;;;;;;;12.10;99.90;;;;;;8292348;28;19925;-77
2023/04/27 18:30:23;;;;;;;;;;;11.70;99.90;;;;;;8287967;28;19971;-77
2023/04/27 18:34:24;;;;;;;;;;;11.60;99.90;;;;;;8289581;28;19955;-77
2023/04/27 18:38:24;;;;;;;;;;;11.40;99.90;;;;;;8291272;28;19943;-77
2023/04/27 18:42:25;;;;;;;;;;;11.20;99.90;;;;;;8268315;28;20235;-77
2023/04/27 18:46:25;;;;;;;;;;;11.00;99.90;;;;;;8288456;28;20353;-77
2023/04/27 18:50:26;;;;;;;;;;;10.80;99.90;;;;;;8290250;28;19932;-77
2023/04/27 18:54:26;;;;;;;;;;;10.70;99.90;;;;;;8288888;28;20393;-78
2023/04/27 18:58:26;;;;;;;;;;;10.60;99.90;;;;;;8287550;28;20463;-77
2023/04/27 19:02:27;;;;;;;;;;;10.70;99.90;;;;;;8288635;28;19921;-77
2023/04/27 19:06:27;;;;;;;;;;;10.70;99.90;;;;;;8288271;28;19925;-77
2023/04/27 19:10:28;;;;;;;;;;;10.60;99.90;;;;;;8288463;28;20448;-78
2023/04/27 19:14:29;;;;;;;;;;;10.30;99.90;;;;;;8289286;28;20012;-77
2023/04/27 19:18:30;;;;;;;;;;;10.20;99.90;;;;;;8291133;28;19925;-77
2023/04/27 19:22:35;;;;;;;;;;;10.00;99.90;;;;;;8292192;28;19913;-77
2023/04/27 19:26:36;;;;;;;;;;;10.00;99.90;;;;;;8290227;28;19913;-77
2023/04/27 19:30:36;;;;;;;;;;;9.70;99.90;;;;;;8290568;28;21064;-77
2023/04/27 19:34:37;;;;;;;;;;;9.50;99.90;;;;;;8267843;28;19960;-78
2023/04/27 19:38:37;;;;;;;;;;;9.30;99.90;;;;;;8278843;28;19956;-77
2023/04/27 19:42:38;;;;;;;;;;;9.40;99.90;;;;;;8295144;28;19921;-78
2023/04/27 19:46:38;;;;;;;;;;;9.50;99.90;;;;;;8274620;28;19922;-76
2023/04/27 19:50:42;;;;;;;;;;;9.20;99.90;;;;;;8276047;28;19913;-78
2023/04/27 19:54:43;;;;;;;;;;;8.90;99.90;;;;;;8284091;28;19983;-78
2023/04/27 19:58:43;;;;;;;;;;;8.60;99.90;;;;;;8296469;28;19977;-77
2023/04/27 20:02:44;;;;;;;;;;;8.40;99.90;;;;;;8292427;28;19953;-78
2023/04/27 20:06:45;;;;;;;;;;;8.20;99.90;;;;;;8296299;28;19921;-77
2023/04/27 20:10:45;;;;;;;;;;;8.10;99.90;;;;;;8293746;28;20492;-77
2023/04/27 20:14:46;;;;;;;;;;;8.10;99.90;;;;;;8293385;28;19921;-77
2023/04/27 20:18:46;;;;;;;;;;;8.60;99.90;;;;;;8294867;28;19914;-78
2023/04/27 20:22:46;;;;;;;;;;;9.10;99.90;;;;;;8292980;28;20000;-77
2023/04/27 20:26:47;;;;;;;;;;;9.00;99.90;;;;;;8291347;28;20323;-78
2023/04/27 20:30:47;;;;;;;;;;;8.60;99.90;;;;;;8293186;28;19972;-77
2023/04/27 20:34:48;;;;;;;;;;;8.50;99.90;;;;;;8291931;28;19910;-77
2023/04/27 20:38:48;;;;;;;;;;;8.40;99.90;;;;;;8293572;28;19909;-77
2023/04/27 20:42:49;;;;;;;;;;;8.30;99.90;;;;;;8270166;28;20409;-77
2023/04/27 20:46:49;;;;;;;;;;;8.40;99.90;;;;;;8274583;28;19914;-79
2023/04/27 20:50:50;;;;;;;;;;;8.20;99.90;;;;;;8284900;28;19921;-78
2023/04/27 20:54:51;;;;;;;;;;;8.20;99.90;;;;;;8286015;28;20438;-78
2023/04/27 20:58:51;;;;;;;;;;;8.40;99.90;;;;;;8296558;28;20067;-78
2023/04/27 21:02:52;;;;;;;;;;;8.60;99.90;;;;;;8294736;28;19916;-78
2023/04/27 21:06:52;;;;;;;;;;;8.50;99.90;;;;;;8288183;28;20032;-77
2023/04/27 21:10:53;;;;;;;;;;;8.30;99.90;;;;;;8306066;28;19913;-77
2023/04/27 21:14:53;;;;;;;;;;;8.00;99.90;;;;;;8286044;28;19914;-77
2023/04/27 21:18:54;;;;;;;;;;;7.70;99.90;;;;;;8302297;28;19913;-78
2023/04/27 21:22:55;;;;;;;;;;;7.60;99.90;;;;;;8283713;28;19969;-77
2023/04/27 21:26:56;;;;;;;;;;;7.60;99.90;;;;;;8278819;28;19935;-77
2023/04/27 21:30:57;;;;;;;;;;;7.80;99.90;;;;;;8302595;28;19956;-77
2023/04/27 21:34:57;;;;;;;;;;;7.90;99.90;;;;;;8300503;28;19913;-77
2023/04/27 21:38:58;;;;;;;;;;;7.80;99.90;;;;;;8284410;28;19910;-78
2023/04/27 21:42:58;;;;;;;;;;;7.80;99.90;;;;;;8303350;28;19957;-77
2023/04/27 21:47:00;;;;;;;;;;;7.70;99.90;;;;;;8282717;28;20285;-76
2023/04/27 21:51:00;;;;;;;;;;;7.80;99.90;;;;;;8300256;28;19940;-77
2023/04/27 21:55:01;;;;;;;;;;;8.00;99.90;;;;;;8304959;28;19921;-77
2023/04/27 21:59:01;;;;;;;;;;;8.00;99.90;;;;;;8309402;28;19920;-77
2023/04/27 22:03:02;;;;;;;;;;;8.20;99.90;;;;;;8304400;28;19924;-78
2023/04/27 22:07:03;;;;;;;;;;;7.90;99.90;;;;;;8300471;28;19916;-77
2023/04/27 22:11:03;;;;;;;;;;;8.00;99.90;;;;;;8287802;28;20330;-77
2023/04/27 22:15:04;;;;;;;;;;;8.10;99.90;;;;;;8299808;28;19941;-78
2023/04/27 22:19:05;;;;;;;;;;;8.00;99.90;;;;;;8283218;28;19910;-78
2023/04/27 22:23:06;;;;;;;;;;;8.00;99.90;;;;;;8300588;28;19917;-76
2023/04/27 22:27:06;;;;;;;;;;;7.80;99.90;;;;;;8281350;28;19913;-76
2023/04/27 22:31:07;;;;;;;;;;;7.90;99.90;;;;;;8296123;28;20008;-77
2023/04/27 22:35:12;;;;;;;;;;;7.80;99.90;;;;;;8296813;28;19909;-77
2023/04/27 22:39:13;;;;;;;;;;;7.50;99.90;;;;;;8297418;28;19914;-77
2023/04/27 22:43:13;;;;;;;;;;;7.30;99.90;;;;;;8297908;28;20392;-77
2023/04/27 22:47:14;;;;;;;;;;;7.50;99.90;;;;;;8299002;28;19917;-77
2023/04/27 22:51:14;;;;;;;;;;;7.50;99.90;;;;;;8287025;28;19910;-78
2023/04/27 22:55:15;;;;;;;;;;;7.80;99.90;;;;;;8298106;28;19928;-77
2023/04/27 22:59:21;;;;;;;;;;;7.90;99.90;;;;;;8277630;28;19925;-78
2023/04/27 23:03:21;;;;;;;;;;;7.60;99.90;;;;;;8297464;28;19920;-76
2023/04/27 23:07:23;;;;;;;;;;;7.30;99.90;;;;;;8297621;28;19909;-78
2023/04/27 23:11:25;;;;;;;;;;;7.20;99.90;;;;;;8288782;28;19960;-77
2023/04/27 23:15:26;;;;;;;;;;;7.20;99.90;;;;;;8273978;28;19924;-78
2023/04/27 23:19:27;;;;;;;;;;;7.40;99.90;;;;;;8294062;28;19999;-78
2023/04/27 23:23:27;;;;;;;;;;;7.50;99.90;;;;;;8282888;28;19922;-78
2023/04/27 23:27:27;;;;;;;;;;;7.50;99.90;;;;;;8296819;28;20386;-78
2023/04/27 23:31:28;;;;;;;;;;;7.60;99.90;;;;;;8295157;28;19924;-78